Time;durP1;ratioP1;P1;durP2;ratioP2;P2;SDS_P1;SDS_P2;PMS_P1;PMS_P2;Temp;Humidity;BMP_temperature;BMP_pressure;BME280_temperature;BME280_humidity;BME280_pressure;Samples;Min_cycle;Max_cycle;Signal;HPM_P1;HPM_P2
2022/09/04 00:03:32;;;;;;;;;;;;;;;22.57;47.63;95730.53;10258340;28;2556;-45
2022/09/04 00:08:38;;;;;;;;;;;;;;;22.53;47.79;95732.19;10204743;29;3300;-43
2022/09/04 00:13:41;;;;;;;;;;;;;;;22.56;47.74;95734.25;10234325;28;2630;-48
2022/09/04 00:19:14;;;;;;;;;;;;;;;22.55;47.70;95727.41;10250966;28;3297;-47
2022/09/04 00:24:22;;;;;;;;;;;;;;;22.57;47.66;95730.53;10229439;28;2580;-46
2022/09/04 00:29:29;;;;;;;;;;;;;;;22.58;47.72;95731.34;10261618;28;3294;-44
2022/09/04 00:34:36;;;;;;;;;;;;;;;22.55;47.65;95730.03;10246892;28;3292;-45
2022/09/04 00:39:43;;;;;;;;;;;;;;;22.54;47.66;95728.47;10260324;28;3330;-46
2022/09/04 00:44:46;;;;;;;;;;;;;;;22.55;47.49;95737.16;10264152;28;3305;-43
2022/09/04 00:49:56;;;;;;;;;;;;;;;22.55;47.67;95732.69;10248777;28;3314;-48
2022/09/04 00:55:00;;;;;;;;;;;;;;;22.54;47.61;95746.97;10245037;28;3330;-46
2022/09/04 01:00:10;;;;;;;;;;;;;;;22.54;47.61;95749.63;10242719;28;2585;-44
2022/09/04 01:05:16;;;;;;;;;;;;;;;22.55;47.31;95756.47;10253460;28;3464;-44
2022/09/04 01:10:25;;;;;;;;;;;;;;;22.55;47.64;95751.19;10248299;28;3397;-46
2022/09/04 01:15:44;;;;;;;;;;;;;;;22.56;47.57;95757.25;10245744;28;3297;-44
2022/09/04 01:21:07;;;;;;;;;;;;;;;22.54;47.57;95754.91;10243958;28;3254;-46
2022/09/04 01:26:20;;;;;;;;;;;;;;;22.54;47.61;95762.81;10241794;28;3333;-45
2022/09/04 01:31:25;;;;;;;;;;;;;;;22.53;47.63;95760.44;10262386;28;3295;-47
2022/09/04 01:36:44;;;;;;;;;;;;;;;22.41;47.79;95768.81;10253534;28;2775;-44
2022/09/04 01:41:51;;;;;;;;;;;;;;;22.32;47.93;95765.22;10246262;28;3277;-44
2022/09/04 01:47:10;;;;;;;;;;;;;;;22.23;47.86;95772.22;10276760;28;3395;-46
2022/09/04 01:52:29;;;;;;;;;;;;;;;22.23;48.10;95776.69;10245587;28;2498;-46
2022/09/04 01:57:41;;;;;;;;;;;;;;;22.26;48.14;95769.00;10249262;28;2455;-45
2022/09/04 02:02:44;;;;;;;;;;;;;;;22.29;47.83;95773.72;10242192;28;3365;-48
2022/09/04 02:08:09;;;;;;;;;;;;;;;22.31;47.83;95774.22;10246456;28;3376;-46
2022/09/04 02:13:19;;;;;;;;;;;;;;;22.31;47.83;95774.22;10255677;28;2433;-46
2022/09/04 02:18:32;;;;;;;;;;;;;;;22.32;47.90;95778.41;10242725;28;2477;-46
2022/09/04 02:23:37;;;;;;;;;;;;;;;22.32;47.90;95780.28;10238160;28;3430;-46
2022/09/04 02:28:49;;;;;;;;;;;;;;;22.31;47.94;95776.88;10242109;28;3343;-47
2022/09/04 02:33:55;;;;;;;;;;;;;;;22.31;47.67;95776.06;10237564;28;2452;-53
2022/09/04 02:39:02;;;;;;;;;;;;;;;22.31;47.79;95776.88;10236910;28;2555;-44
2022/09/04 02:44:21;;;;;;;;;;;;;;;22.31;47.86;95778.72;10236761;28;3382;-44
2022/09/04 02:49:40;;;;;;;;;;;;;;;22.29;47.85;95786.94;10245055;28;3270;-48
2022/09/04 02:54:59;;;;;;;;;;;;;;;22.32;47.68;95780.28;10242581;28;3266;-45
2022/09/04 03:00:01;;;;;;;;;;;;;;;22.29;48.00;95776.34;10240670;28;3318;-45
2022/09/04 03:05:40;;;;;;;;;;;;;;;22.27;48.06;95778.50;10249063;28;2601;-47
2022/09/04 03:10:45;;;;;;;;;;;;;;;22.26;47.98;95774.28;10229252;28;3320;-44
2022/09/04 03:15:49;;;;;;;;;;;;;;;22.24;47.70;95786.97;10250222;28;3274;-46
2022/09/04 03:21:09;;;;;;;;;;;;;;;22.24;47.99;95784.34;10271123;28;3313;-47
2022/09/04 03:26:09;;;;;;;;;;;;;;;22.26;47.66;95784.03;10248188;28;3328;-49
2022/09/04 03:31:22;;;;;;;;;;;;;;;22.24;47.94;95789.63;10250905;28;3392;-48
2022/09/04 03:36:26;;;;;;;;;;;;;;;22.26;47.73;95787.47;10243932;28;2423;-44
2022/09/04 03:41:29;;;;;;;;;;;;;;;22.23;47.99;95790.69;10261714;28;2441;-45
2022/09/04 03:46:30;;;;;;;;;;;;;;;22.21;48.01;95789.41;10249904;28;3366;-45
2022/09/04 03:51:33;;;;;;;;;;;;;;;22.21;47.97;95800.75;10249726;28;3301;-45
2022/09/04 03:56:37;;;;;;;;;;;;;;;22.19;48.02;95805.53;10247263;28;3428;-46
2022/09/04 04:01:38;;;;;;;;;;;;;;;22.20;48.01;95804.44;10259626;28;2513;-45
2022/09/04 04:06:41;;;;;;;;;;;;;;;22.18;47.95;95806.59;10248955;28;3385;-44
2022/09/04 04:11:54;;;;;;;;;;;;;;;22.18;48.04;95811.06;10260936;28;2484;-46
2022/09/04 04:16:54;;;;;;;;;;;;;;;22.15;48.21;95807.16;10262073;28;3435;-46
2022/09/04 04:22:00;;;;;;;;;;;;;;;22.12;48.13;95823.56;10245571;28;3305;-44
2022/09/04 04:27:06;;;;;;;;;;;;;;;22.09;48.18;95823.34;10246868;28;2486;-44
2022/09/04 04:32:33;;;;;;;;;;;;;;;22.11;48.04;95824.63;10243345;28;2451;-45
2022/09/04 04:37:33;;;;;;;;;;;;;;;22.11;48.18;95835.19;10222894;28;2564;-48
2022/09/04 04:42:33;;;;;;;;;;;;;;;22.13;48.15;95843.63;10248633;28;2395;-45
2022/09/04 04:47:39;;;;;;;;;;;;;;;22.11;48.18;95852.88;10247392;28;3278;-45
2022/09/04 04:52:39;;;;;;;;;;;;;;;22.07;48.21;95863.19;10240004;28;2811;-46
2022/09/04 04:57:55;;;;;;;;;;;;;;;22.03;48.02;95867.47;10242722;28;2389;-44
2022/09/04 05:02:55;;;;;;;;;;;;;;;22.02;48.22;95870.38;10241610;28;2456;-47
2022/09/04 05:08:22;;;;;;;;;;;;;;;22.00;48.29;95875.97;10245942;28;3245;-49
2022/09/04 05:13:41;;;;;;;;;;;;;;;22.02;48.17;95880.94;10244854;28;2453;-44
2022/09/04 05:18:44;;;;;;;;;;;;;;;22.01;48.31;95892.59;10245243;28;2433;-45
2022/09/04 05:23:49;;;;;;;;;;;;;;;22.00;48.25;95896.28;10243394;28;3246;-43
2022/09/04 05:29:09;;;;;;;;;;;;;;;22.01;48.31;95903.91;10249264;28;2472;-47
2022/09/04 05:34:09;;;;;;;;;;;;;;;22.00;48.36;95910.28;10256387;28;3313;-46
2022/09/04 05:39:12;;;;;;;;;;;;;;;21.98;48.10;95915.03;10244466;28;2474;-45
2022/09/04 05:44:31;;;;;;;;;;;;;;;21.99;48.34;95929.81;10242916;28;3316;-46
2022/09/04 05:49:40;;;;;;;;;;;;;;;22.00;48.03;95927.94;10248180;28;2477;-53
2022/09/04 05:54:40;;;;;;;;;;;;;;;22.01;48.26;95922.38;10261934;28;2414;-46
2022/09/04 05:59:59;;;;;;;;;;;;;;;22.02;48.08;95926.63;10242379;28;3431;-47
2022/09/04 06:05:04;;;;;;;;;;;;;;;22.04;47.93;95934.25;10238417;28;3269;-45
2022/09/04 06:10:10;;;;;;;;;;;;;;;22.05;48.27;95936.59;10255398;28;3254;-46
2022/09/04 06:15:17;;;;;;;;;;;;;;;22.05;48.00;95939.25;10247024;28;3318;-44
2022/09/04 06:20:35;;;;;;;;;;;;;;;22.05;47.94;95944.53;10243748;28;3326;-46
2022/09/04 06:25:48;;;;;;;;;;;;;;;22.08;48.19;95949.25;10243668;28;2452;-44
2022/09/04 06:30:51;;;;;;;;;;;;;;;22.05;48.14;95965.63;10258464;28;2493;-46
2022/09/04 06:36:00;;;;;;;;;;;;;;;22.04;48.28;95964.09;10237716;28;2486;-45
2022/09/04 06:41:13;;;;;;;;;;;;;;;22.07;48.10;95960.09;10239750;28;3387;-45
2022/09/04 06:46:13;;;;;;;;;;;;;;;22.07;48.26;95979.34;10241965;28;3285;-44
2022/09/04 06:51:33;;;;;;;;;;;;;;;22.08;48.09;95969.59;10242805;28;3419;-44
2022/09/04 06:56:40;;;;;;;;;;;;;;;22.07;48.34;95979.34;10238169;28;3279;-44
2022/09/04 07:01:40;;;;;;;;;;;;;;;22.08;48.09;95986.22;10253737;28;3228;-47
2022/09/04 07:06:47;;;;;;;;;;;;;;;22.10;48.48;95980.66;10241687;28;3304;-49
2022/09/04 07:11:56;;;;;;;;;;;;;;;22.11;48.14;95985.69;10242523;28;2601;-46
2022/09/04 07:17:11;;;;;;;;;;;;;;;22.11;48.30;95983.03;10244033;28;3297;-45
2022/09/04 07:22:30;;;;;;;;;;;;;;;22.13;48.41;95990.69;10246709;28;3292;-44
2022/09/04 07:27:40;;;;;;;;;;;;;;;22.14;48.99;95994.88;10256939;28;2612;-45
2022/09/04 07:32:44;;;;;;;;;;;;;;;22.12;49.01;96002.28;10236423;28;2500;-46
2022/09/04 07:38:04;;;;;;;;;;;;;;;22.11;49.32;96000.72;10251986;28;3707;-45
2022/09/04 07:43:22;;;;;;;;;;;;;;;22.11;49.17;96006.81;10243862;28;3258;-45
2022/09/04 07:48:28;;;;;;;;;;;;;;;22.12;49.37;96013.63;10249910;28;2482;-44
2022/09/04 07:53:51;;;;;;;;;;;;;;;22.15;49.49;96010.47;10259044;28;3351;-45
2022/09/04 07:58:55;;;;;;;;;;;;;;;22.18;49.45;96022.28;10246158;28;2621;-44
2022/09/04 08:04:22;;;;;;;;;;;;;;;22.19;49.28;96037.88;10265641;28;3355;-46
2022/09/04 08:09:41;;;;;;;;;;;;;;;22.23;49.29;96046.84;10241789;28;3239;-48
2022/09/04 08:14:41;;;;;;;;;;;;;;;22.24;49.46;96043.09;10243834;28;2475;-45
2022/09/04 08:19:45;;;;;;;;;;;;;;;22.25;49.50;96052.63;10248381;28;2434;-44
2022/09/04 08:24:57;;;;;;;;;;;;;;;22.28;49.35;96051.25;10249141;28;2532;-45
2022/09/04 08:30:02;;;;;;;;;;;;;;;22.32;49.29;96052.28;10250433;28;3242;-45
2022/09/04 08:35:22;;;;;;;;;;;;;;;22.36;48.95;96050.69;10248143;28;3274;-45
2022/09/04 08:40:25;;;;;;;;;;;;;;;22.37;48.72;96055.69;10246879;28;2517;-45
2022/09/04 08:45:42;;;;;;;;;;;;;;;22.36;48.87;96066.53;10248099;28;3342;-46
2022/09/04 08:50:45;;;;;;;;;;;;;;;22.30;48.98;96065.78;10246787;28;2468;-44
2022/09/04 08:55:49;;;;;;;;;;;;;;;22.29;49.05;96068.69;10263134;28;3341;-46
2022/09/04 09:01:09;;;;;;;;;;;;;;;22.29;48.89;96071.34;10247238;28;3427;-45
2022/09/04 09:06:09;;;;;;;;;;;;;;;22.30;49.05;96076.34;10248967;28;3010;-46
2022/09/04 09:11:28;;;;;;;;;;;;;;;22.32;49.17;96063.63;10247737;28;2153;-46
2022/09/04 09:16:28;;;;;;;;;;;;;;;22.32;49.24;96068.91;10244993;28;3005;-47
2022/09/04 09:21:42;;;;;;;;;;;;;;;22.33;49.42;96067.06;10251076;28;2400;-46
2022/09/04 09:26:49;;;;;;;;;;;;;;;22.33;49.38;96067.88;10264091;28;2997;-45
2022/09/04 09:31:49;;;;;;;;;;;;;;;22.35;49.46;96060.47;10248604;28;2144;-44
2022/09/04 09:37:08;;;;;;;;;;;;;;;22.35;49.36;96071.03;10259445;28;2401;-45
2022/09/04 09:42:12;;;;;;;;;;;;;;;22.37;49.80;96068.88;10251547;28;3021;-46
2022/09/04 09:47:15;;;;;;;;;;;;;;;22.39;49.49;96050.13;10251537;28;3077;-46
2022/09/04 09:52:34;;;;;;;;;;;;;;;22.49;49.22;96050.81;10246355;28;2174;-48
2022/09/04 09:57:55;;;;;;;;;;;;;;;22.49;49.38;96050.81;10242746;28;3194;-44
2022/09/04 10:03:15;;;;;;;;;;;;;;;22.50;49.69;96041.81;10233904;28;2106;-45
2022/09/04 10:08:26;;;;;;;;;;;;;;;22.53;49.36;96049.19;10241607;28;2168;-49
2022/09/04 10:13:49;;;;;;;;;;;;;;;22.43;49.86;96044.00;10254379;28;3203;-45
2022/09/04 10:19:09;;;;;;;;;;;;;;;22.43;50.08;96051.94;10255802;28;3068;-46
2022/09/04 10:24:10;;;;;;;;;;;;;;;22.45;49.89;96054.28;10239147;28;3103;-42
2022/09/04 10:29:10;;;;;;;;;;;;;;;22.45;49.87;96055.09;10244062;28;3048;-44
2022/09/04 10:34:11;;;;;;;;;;;;;;;22.46;49.76;96051.38;10241266;28;2998;-43
2022/09/04 10:44:57;;;;;;;;;;;;;;;22.46;49.80;96056.66;10241352;28;3177;-44
2022/09/04 10:50:12;;;;;;;;;;;;;;;22.46;49.92;96048.72;10243252;28;2201;-42
2022/09/04 10:55:41;;;;;;;;;;;;;;;22.50;49.64;96047.09;10254869;28;3047;-45
2022/09/04 11:00:53;;;;;;;;;;;;;;;22.51;49.92;96046.03;10226616;28;2308;-43
2022/09/04 11:06:09;;;;;;;;;;;;;;;22.51;49.88;96053.97;10251802;28;2171;-42
2022/09/04 11:11:14;;;;;;;;;;;;;;;22.50;49.60;96057.66;10242595;28;3026;-45
2022/09/04 11:16:26;;;;;;;;;;;;;;;22.50;49.70;96056.91;10242238;28;2185;-42
2022/09/04 11:21:38;;;;;;;;;;;;;;;22.52;49.83;96044.97;10243822;28;3258;-42
2022/09/04 11:27:06;;;;;;;;;;;;;;;22.52;49.82;96049.47;10262332;28;2954;-43
2022/09/04 11:32:14;;;;;;;;;;;;;;;22.52;49.81;96047.59;10244496;28;3086;-42
2022/09/04 11:37:19;;;;;;;;;;;;;;;22.52;49.87;96044.97;10250047;28;3026;-42
2022/09/04 11:42:40;;;;;;;;;;;;;;;22.56;49.75;96047.84;10262854;28;2106;-41
2022/09/04 11:47:40;;;;;;;;;;;;;;;22.63;49.25;96050.97;10248509;28;2129;-41
2022/09/04 11:52:50;;;;;;;;;;;;;;;22.61;48.68;96053.09;10247103;28;3236;-41
2022/09/04 11:57:53;;;;;;;;;;;;;;;22.58;48.87;96059.75;10245697;28;3454;-48
2022/09/04 12:03:09;;;;;;;;;;;;;;;22.58;47.87;96048.41;10243991;28;2221;-47
2022/09/04 12:08:12;;;;;;;;;;;;;;;22.73;47.34;96060.69;10244887;28;3006;-48
2022/09/04 12:13:19;;;;;;;;;;;;;;;22.74;46.89;96060.38;10246478;28;3089;-48
2022/09/04 12:18:30;;;;;;;;;;;;;;;22.58;47.35;96059.75;10244173;28;3153;-48
2022/09/04 12:23:50;;;;;;;;;;;;;;;22.61;47.19;96048.63;10245188;28;2992;-47
2022/09/04 12:29:26;;;;;;;;;;;;;;;22.62;46.72;96044.94;10237951;28;3105;-48
2022/09/04 12:34:36;;;;;;;;;;;;;;;22.55;47.30;96044.41;10224831;28;2187;-47
2022/09/04 12:39:51;;;;;;;;;;;;;;;22.56;47.00;96051.28;10248279;28;3119;-48
2022/09/04 12:45:12;;;;;;;;;;;;;;;22.63;46.13;96051.78;10243225;28;2317;-48
2022/09/04 12:50:14;;;;;;;;;;;;;;;22.67;46.38;96050.16;10239873;28;3139;-48
2022/09/04 12:55:16;;;;;;;;;;;;;;;22.63;46.67;96054.41;10245015;28;2978;-48
2022/09/04 13:00:17;;;;;;;;;;;;;;;22.67;46.45;96052.78;10263212;28;3130;-48
2022/09/04 13:05:30;;;;;;;;;;;;;;;22.80;45.87;96053.19;10243162;28;3104;-48
2022/09/04 13:11:12;;;;;;;;;;;;;;;22.67;46.10;96058.06;10260778;28;2192;-48
2022/09/04 13:16:15;;;;;;;;;;;;;;;22.61;46.48;96059.19;10120505;29;2190;-48
2022/09/04 13:21:22;;;;;;;;;;;;;;;22.67;46.08;96060.72;10220531;28;3081;-48
2022/09/04 13:26:31;;;;;;;;;;;;;;;22.63;46.18;96062.34;10247200;28;3073;-48
2022/09/04 13:31:34;;;;;;;;;;;;;;;22.65;46.30;96064.69;10245682;28;2986;-47
2022/09/04 13:36:41;;;;;;;;;;;;;;;22.59;46.47;96061.31;10246084;28;2169;-48
2022/09/04 13:42:02;;;;;;;;;;;;;;;22.59;46.76;96055.25;10243869;28;3044;-48
2022/09/04 13:47:04;;;;;;;;;;;;;;;22.65;46.09;96065.50;10258175;28;3140;-48
2022/09/04 13:52:06;;;;;;;;;;;;;;;22.72;45.15;96065.16;10257719;28;3032;-48
2022/09/04 13:57:08;;;;;;;;;;;;;;;22.67;45.31;96063.34;10246465;28;3128;-48
2022/09/04 14:02:11;;;;;;;;;;;;;;;22.65;45.32;96067.34;10247038;28;2133;-47
2022/09/04 14:07:17;;;;;;;;;;;;;;;22.63;44.92;96059.69;10243501;28;3124;-47
2022/09/04 14:12:18;;;;;;;;;;;;;;;22.64;44.99;96053.38;10242708;28;2228;-47
2022/09/04 14:17:25;;;;;;;;;;;;;;;22.68;44.81;96061.50;10244732;28;2223;-48
2022/09/04 14:22:43;;;;;;;;;;;;;;;22.67;44.24;96058.06;10241376;28;3027;-47
2022/09/04 14:27:47;;;;;;;;;;;;;;;22.64;44.04;96052.56;10259780;28;2180;-48
2022/09/04 14:32:48;;;;;;;;;;;;;;;22.61;44.12;96058.41;10241240;28;3048;-48
2022/09/04 14:37:53;;;;;;;;;;;;;;;22.62;43.94;96050.22;10244311;28;3069;-48
2022/09/04 14:42:56;;;;;;;;;;;;;;;22.67;43.85;96059.16;10255873;28;3060;-48
2022/09/04 14:47:58;;;;;;;;;;;;;;;22.60;44.15;96055.00;10256722;28;3190;-48
2022/09/04 14:53:00;;;;;;;;;;;;;;;22.63;44.36;96056.25;10241516;28;2274;-47
2022/09/04 14:58:02;;;;;;;;;;;;;;;22.67;44.44;96058.06;10244707;28;3044;-48
2022/09/04 15:03:16;;;;;;;;;;;;;;;22.63;44.25;96058.91;10257956;28;3060;-48
2022/09/04 15:08:26;;;;;;;;;;;;;;;22.61;44.41;96053.09;10244050;28;2353;-48
2022/09/04 15:13:27;;;;;;;;;;;;;;;22.64;44.11;96053.38;10242931;28;3153;-48
2022/09/04 15:18:33;;;;;;;;;;;;;;;22.61;44.07;96056.53;10247535;28;3026;-48
2022/09/04 15:23:39;;;;;;;;;;;;;;;22.62;43.53;96054.69;10244446;28;3010;-48
2022/09/04 15:28:47;;;;;;;;;;;;;;;22.58;43.69;96051.84;10238965;28;3005;-48
2022/09/04 15:33:47;;;;;;;;;;;;;;;22.57;44.37;96055.50;10224682;28;3098;-54
2022/09/04 15:38:57;;;;;;;;;;;;;;;22.63;44.49;96054.41;10255113;28;2982;-47
2022/09/04 15:44:00;;;;;;;;;;;;;;;22.63;44.47;96054.41;10251734;28;3130;-45
2022/09/04 15:49:16;;;;;;;;;;;;;;;22.67;44.26;96055.44;10244266;28;3148;-45
2022/09/04 15:54:22;;;;;;;;;;;;;;;22.73;43.92;96055.41;10239586;28;3072;-46
2022/09/04 15:59:28;;;;;;;;;;;;;;;22.72;44.15;96059.88;10239853;28;3066;-47
2022/09/04 16:04:33;;;;;;;;;;;;;;;22.77;43.01;96054.56;10244743;28;2911;-45
2022/09/04 16:09:39;;;;;;;;;;;;;;;22.63;43.10;96051.78;10257128;28;3058;-47
2022/09/04 16:14:43;;;;;;;;;;;;;;;22.64;43.28;96057.84;10244439;28;3032;-46
2022/09/04 16:19:43;;;;;;;;;;;;;;;22.61;43.85;96059.19;10250521;28;3002;-44
2022/09/04 16:24:47;;;;;;;;;;;;;;;22.61;44.36;96056.53;10248947;28;3005;-46
2022/09/04 16:29:51;;;;;;;;;;;;;;;22.71;43.34;96062.81;10264288;28;3185;-45
2022/09/04 16:35:15;;;;;;;;;;;;;;;22.65;43.82;96070.78;10249562;28;2170;-48
2022/09/04 16:40:18;;;;;;;;;;;;;;;22.64;44.06;96069.22;10249096;28;3129;-45
2022/09/04 16:45:38;;;;;;;;;;;;;;;22.65;44.19;96070.78;10258860;28;3102;-45
2022/09/04 16:50:41;;;;;;;;;;;;;;;22.67;44.56;96075.00;10255647;28;2168;-46
2022/09/04 16:56:07;;;;;;;;;;;;;;;22.68;44.45;96069.44;10256541;28;2204;-48
2022/09/04 17:01:11;;;;;;;;;;;;;;;22.69;44.48;96075.50;10250228;28;2173;-48
2022/09/04 17:06:20;;;;;;;;;;;;;;;22.70;44.80;96071.78;10252397;28;3136;-44
2022/09/04 17:11:48;;;;;;;;;;;;;;;22.72;45.04;96080.22;10273623;28;3145;-46
2022/09/04 17:17:21;;;;;;;;;;;;;;;22.72;45.02;96082.88;10260761;28;3196;-48
2022/09/04 17:22:33;;;;;;;;;;;;;;;22.72;44.99;96080.22;10232900;28;3037;-46
2022/09/04 17:27:37;;;;;;;;;;;;;;;22.69;45.25;96094.00;10255852;28;2177;-46
2022/09/04 17:32:37;;;;;;;;;;;;;;;22.71;45.32;96089.25;10263028;28;2246;-46
2022/09/04 17:37:49;;;;;;;;;;;;;;;22.74;45.43;96088.66;10241495;28;2212;-47
2022/09/04 17:42:53;;;;;;;;;;;;;;;22.73;45.30;96087.88;10264263;28;2129;-44
2022/09/04 17:48:04;;;;;;;;;;;;;;;22.75;45.55;96091.03;10260613;28;3065;-48
2022/09/04 17:53:06;;;;;;;;;;;;;;;22.73;45.62;96098.44;10261893;28;2212;-47
2022/09/04 17:58:11;;;;;;;;;;;;;;;22.76;45.66;96107.69;10244829;28;3142;-48
2022/09/04 18:03:28;;;;;;;;;;;;;;;22.77;45.67;96114.56;10259488;28;2181;-47
2022/09/04 18:08:41;;;;;;;;;;;;;;;22.78;45.80;96126.69;10245055;28;3064;-46
2022/09/04 18:13:47;;;;;;;;;;;;;;;22.80;46.09;96124.56;10254583;28;2159;-45
2022/09/04 18:18:51;;;;;;;;;;;;;;;22.82;45.94;96133.00;10242972;28;2163;-48
2022/09/04 18:23:51;;;;;;;;;;;;;;;22.83;46.30;96145.16;10238501;28;3104;-47
2022/09/04 18:28:53;;;;;;;;;;;;;;;22.85;46.05;96143.03;10240063;28;2249;-47
2022/09/04 18:34:12;;;;;;;;;;;;;;;22.88;45.70;96145.88;10239629;28;2993;-44
2022/09/04 18:39:24;;;;;;;;;;;;;;;22.91;45.76;96142.69;10240067;28;2927;-45
2022/09/04 18:44:38;;;;;;;;;;;;;;;22.93;45.44;96150.34;10238249;28;3135;-45
2022/09/04 18:49:38;;;;;;;;;;;;;;;22.92;45.71;96156.69;10256545;28;3054;-47
2022/09/04 18:54:43;;;;;;;;;;;;;;;22.93;45.38;96161.72;10240287;28;2946;-44
2022/09/04 18:59:43;;;;;;;;;;;;;;;22.93;45.28;96163.56;10258827;28;2129;-47
2022/09/04 19:04:47;;;;;;;;;;;;;;;22.93;45.48;96164.34;10255815;28;2240;-46
2022/09/04 19:10:02;;;;;;;;;;;;;;;22.88;45.69;96169.69;10240332;28;2227;-45
2022/09/04 19:15:02;;;;;;;;;;;;;;;22.91;45.63;96163.84;10240822;28;3068;-46
2022/09/04 19:20:05;;;;;;;;;;;;;;;22.95;45.69;96166.72;10253116;28;3071;-45
2022/09/04 19:25:26;;;;;;;;;;;;;;;22.94;45.65;96163.28;10236537;28;2307;-44
2022/09/04 19:30:28;;;;;;;;;;;;;;;22.96;45.65;96163.00;10239389;28;3049;-44
2022/09/04 19:35:31;;;;;;;;;;;;;;;22.96;45.65;96168.28;10239964;28;2997;-46
2022/09/04 19:40:36;;;;;;;;;;;;;;;22.96;45.68;96163.00;10255413;28;3069;-46
2022/09/04 19:45:46;;;;;;;;;;;;;;;22.97;45.71;96169.88;10257328;28;3073;-46
2022/09/04 19:50:47;;;;;;;;;;;;;;;22.97;45.98;96167.22;10247402;28;3115;-46
2022/09/04 19:55:54;;;;;;;;;;;;;;;22.97;46.34;96162.72;10247644;28;2125;-46
2022/09/04 20:00:56;;;;;;;;;;;;;;;22.96;46.28;96171.72;10229097;28;2241;-46
2022/09/04 20:05:58;;;;;;;;;;;;;;;22.95;46.20;96169.34;10243817;28;3194;-45
2022/09/04 20:11:00;;;;;;;;;;;;;;;22.93;46.54;96161.72;10260068;28;3004;-47
2022/09/04 20:16:22;;;;;;;;;;;;;;;22.93;46.57;96160.91;10262222;28;3101;-49
2022/09/04 20:21:45;;;;;;;;;;;;;;;22.93;46.43;96167.00;10247476;28;3309;-47
2022/09/04 20:26:55;;;;;;;;;;;;;;;22.91;46.91;96158.56;10200544;28;2989;-45
2022/09/04 20:31:58;;;;;;;;;;;;;;;22.91;46.68;96163.06;10244099;28;3141;-50
2022/09/04 20:37:21;;;;;;;;;;;;;;;22.89;47.00;96171.28;10245937;28;3054;-45
2022/09/04 20:42:24;;;;;;;;;;;;;;;22.89;46.64;96160.69;10239909;28;3102;-48
2022/09/04 20:47:28;;;;;;;;;;;;;;;22.79;47.04;96167.91;10264638;28;3170;-45
2022/09/04 20:52:28;;;;;;;;;;;;;;;22.79;47.28;96165.28;10261322;28;2235;-48
2022/09/04 20:57:37;;;;;;;;;;;;;;;22.80;47.20;96164.19;10247735;28;3113;-46
2022/09/04 21:02:37;;;;;;;;;;;;;;;22.79;47.02;96162.63;10244781;28;3108;-44
2022/09/04 21:07:43;;;;;;;;;;;;;;;22.80;47.40;96162.34;10253306;28;2966;-47
2022/09/04 21:12:45;;;;;;;;;;;;;;;22.82;47.17;96164.72;10247289;28;3153;-50
2022/09/04 21:17:51;;;;;;;;;;;;;;;22.80;47.45;96156.25;10268535;28;2173;-45
2022/09/04 21:23:06;;;;;;;;;;;;;;;22.77;47.35;96162.91;10257615;28;3035;-47
2022/09/04 21:28:20;;;;;;;;;;;;;;;22.76;47.71;96166.63;10260184;28;3006;-47
2022/09/04 21:33:20;;;;;;;;;;;;;;;22.78;47.44;96175.06;10260741;28;3045;-47
2022/09/04 21:38:29;;;;;;;;;;;;;;;22.77;47.56;96176.13;10243063;28;2182;-46
2022/09/04 21:43:36;;;;;;;;;;;;;;;22.78;47.65;96187.47;10242916;28;2156;-48
2022/09/04 21:48:48;;;;;;;;;;;;;;;22.79;47.75;96191.72;10245205;28;2165;-45
2022/09/04 21:54:08;;;;;;;;;;;;;;;22.78;47.47;96190.13;10241721;28;3024;-49
2022/09/04 21:59:08;;;;;;;;;;;;;;;22.75;47.61;96194.09;10245526;28;3078;-46
2022/09/04 22:04:20;;;;;;;;;;;;;;;22.75;47.86;96180.88;10239814;28;2134;-46
2022/09/04 22:09:24;;;;;;;;;;;;;;;22.78;47.86;96192.75;10243550;28;2985;-49
2022/09/04 22:14:37;;;;;;;;;;;;;;;22.79;47.80;96194.34;10243762;28;3110;-47
2022/09/04 22:19:37;;;;;;;;;;;;;;;22.80;47.86;96187.97;10260407;28;3022;-45
2022/09/04 22:24:56;;;;;;;;;;;;;;;22.79;47.90;96187.22;10238029;28;2213;-46
2022/09/04 22:30:09;;;;;;;;;;;;;;;22.81;47.69;96185.09;10242335;28;3068;-45
2022/09/04 22:35:14;;;;;;;;;;;;;;;22.81;47.79;96189.56;10257639;28;2977;-48
2022/09/04 22:40:33;;;;;;;;;;;;;;;22.83;47.62;96190.09;10240409;28;2149;-48
2022/09/04 22:45:52;;;;;;;;;;;;;;;22.81;47.75;96185.09;10240673;28;3052;-47
2022/09/04 22:50:56;;;;;;;;;;;;;;;22.81;47.85;96179.00;10241810;28;2165;-46
2022/09/04 22:55:57;;;;;;;;;;;;;;;22.84;48.06;96181.06;10238726;28;2984;-46
2022/09/04 23:01:16;;;;;;;;;;;;;;;22.82;47.62;96180.56;10239908;28;3086;-45
2022/09/04 23:06:20;;;;;;;;;;;;;;;22.82;47.75;96191.13;10245728;28;3083;-47
2022/09/04 23:11:38;;;;;;;;;;;;;;;22.81;47.77;96187.72;10238959;28;2184;-49
2022/09/04 23:16:39;;;;;;;;;;;;;;;22.85;47.83;96177.38;10246353;28;2157;-47
2022/09/04 23:21:54;;;;;;;;;;;;;;;22.84;47.94;96183.72;10251162;28;2192;-49
2022/09/04 23:27:07;;;;;;;;;;;;;;;22.84;48.24;96189.81;10262088;28;3049;-47
2022/09/04 23:32:20;;;;;;;;;;;;;;;22.83;47.89;96180.31;10248830;28;3042;-50
2022/09/04 23:37:25;;;;;;;;;;;;;;;22.84;47.73;96178.44;10253209;28;3137;-46
2022/09/04 23:42:45;;;;;;;;;;;;;;;22.83;47.83;96180.31;10263972;28;3084;-49
2022/09/04 23:48:07;;;;;;;;;;;;;;;22.84;47.90;96171.31;10248830;28;3097;-49
2022/09/04 23:53:23;;;;;;;;;;;;;;;22.84;47.97;96168.66;10216099;28;2332;-47
